Time;durP1;ratioP1;P1;durP2;ratioP2;P2;SDS_P1;SDS_P2;PMS_P1;PMS_P2;Temp;Humidity;BMP_temperature;BMP_pressure;BME280_temperature;BME280_humidity;BME280_pressure;Samples;Min_cycle;Max_cycle;Signal;HPM_P1;HPM_P2
2023/12/27 00:00:41;;;;;;;8.05;6.95;;;;;;;;;;4967477;28;20113;-81
2023/12/27 00:03:06;;;;;;;9.18;6.90;;;;;;;;;;4968918;28;20196;-79
2023/12/27 00:05:32;;;;;;;9.40;7.50;;;;;;;;;;4960931;28;20134;-81
2023/12/27 00:07:58;;;;;;;8.13;7.47;;;;;;;;;;4966524;28;20489;-80
2023/12/27 00:10:23;;;;;;;8.45;6.68;;;;;;;;;;4929929;28;20035;-80
2023/12/27 00:12:49;;;;;;;12.55;7.07;;;;;;;;;;4976267;28;20039;-80
2023/12/27 00:15:14;;;;;;;8.77;7.40;;;;;;;;;;4961192;28;20135;-79
2023/12/27 00:17:40;;;;;;;8.68;6.63;;;;;;;;;;4952626;28;20035;-80
2023/12/27 00:20:06;;;;;;;6.90;6.20;;;;;;;;;;4934643;28;20042;-80
2023/12/27 00:22:32;;;;;;;6.78;6.10;;;;;;;;;;4957238;28;20117;-80
2023/12/27 00:24:57;;;;;;;7.63;6.30;;;;;;;;;;4963090;28;20074;-80
2023/12/27 00:27:23;;;;;;;7.85;6.43;;;;;;;;;;4965364;28;20039;-80
2023/12/27 00:29:48;;;;;;;10.32;6.38;;;;;;;;;;4964400;28;20114;-80
2023/12/27 00:32:15;;;;;;;9.55;6.70;;;;;;;;;;4962633;28;20043;-81
2023/12/27 00:34:41;;;;;;;8.40;6.53;;;;;;;;;;4941944;28;20034;-80
2023/12/27 00:37:07;;;;;;;7.88;7.07;;;;;;;;;;4943404;28;20053;-80
2023/12/27 00:39:34;;;;;;;7.18;6.47;;;;;;;;;;4963296;28;20039;-80
2023/12/27 00:41:59;;;;;;;8.40;6.57;;;;;;;;;;4961137;28;20089;-81
2023/12/27 00:44:26;;;;;;;6.80;6.28;;;;;;;;;;4971136;28;20034;-80
2023/12/27 00:46:51;;;;;;;7.00;6.38;;;;;;;;;;4987403;28;20055;-79
2023/12/27 00:49:18;;;;;;;7.43;6.80;;;;;;;;;;4964743;28;20043;-79
2023/12/27 00:51:44;;;;;;;6.68;6.07;;;;;;;;;;4951099;28;20111;-79
2023/12/27 00:54:10;;;;;;;6.78;6.28;;;;;;;;;;4970374;28;20085;-80
2023/12/27 00:56:35;;;;;;;8.70;7.10;;;;;;;;;;4927620;28;20257;-81
2023/12/27 00:59:01;;;;;;;6.85;6.25;;;;;;;;;;4959696;28;20063;-80
2023/12/27 01:01:30;;;;;;;7.47;6.60;;;;;;;;;;4965008;28;20034;-78
2023/12/27 01:03:56;;;;;;;11.38;6.82;;;;;;;;;;4969976;28;20081;-80
2023/12/27 01:06:23;;;;;;;8.77;6.15;;;;;;;;;;4957922;28;20051;-81
2023/12/27 01:08:49;;;;;;;6.90;6.40;;;;;;;;;;4954425;28;20109;-81
2023/12/27 01:11:14;;;;;;;6.50;5.85;;;;;;;;;;4964400;28;20049;-80
2023/12/27 01:13:40;;;;;;;7.18;6.22;;;;;;;;;;4970367;28;20047;-79
2023/12/27 01:16:06;;;;;;;7.97;6.72;;;;;;;;;;4952120;28;20061;-78
2023/12/27 01:18:31;;;;;;;7.25;6.55;;;;;;;;;;4959989;28;20414;-79
2023/12/27 01:20:57;;;;;;;8.27;6.57;;;;;;;;;;4961324;28;20481;-78
2023/12/27 01:23:23;;;;;;;7.38;6.70;;;;;;;;;;4967534;28;20137;-79
2023/12/27 01:25:49;;;;;;;10.75;6.30;;;;;;;;;;4963773;28;20034;-79
2023/12/27 01:28:15;;;;;;;9.48;5.93;;;;;;;;;;4947348;28;20034;-78
2023/12/27 01:30:41;;;;;;;6.80;6.10;;;;;;;;;;4952422;28;20038;-79
2023/12/27 01:33:06;;;;;;;6.30;5.90;;;;;;;;;;4964677;28;20030;-80
2023/12/27 01:35:32;;;;;;;7.45;6.80;;;;;;;;;;4946526;28;20143;-79
2023/12/27 01:37:58;;;;;;;8.32;6.57;;;;;;;;;;4968874;28;20130;-80
2023/12/27 01:40:23;;;;;;;7.70;6.78;;;;;;;;;;4959197;28;20157;-79
2023/12/27 01:42:49;;;;;;;7.38;6.68;;;;;;;;;;4963995;28;20035;-78
2023/12/27 01:45:14;;;;;;;7.00;6.22;;;;;;;;;;4952154;28;20039;-80
2023/12/27 01:47:42;;;;;;;6.97;6.07;;;;;;;;;;4965672;28;20038;-79
2023/12/27 01:50:11;;;;;;;7.95;6.35;;;;;;;;;;4964468;28;20781;-80
2023/12/27 01:52:39;;;;;;;10.13;6.93;;;;;;;;;;4968847;28;20089;-79
2023/12/27 01:55:09;;;;;;;6.75;6.15;;;;;;;;;;4952163;28;20039;-79
2023/12/27 01:57:39;;;;;;;7.32;6.63;;;;;;;;;;4962115;28;20035;-79
2023/12/27 02:00:06;;;;;;;6.78;5.80;;;;;;;;;;4962775;28;20043;-80
2023/12/27 02:02:38;;;;;;;8.35;7.03;;;;;;;;;;4960941;28;20845;-79
2023/12/27 02:05:05;;;;;;;7.13;6.15;;;;;;;;;;4962015;28;20145;-80
2023/12/27 02:07:31;;;;;;;8.38;6.65;;;;;;;;;;4959912;28;20042;-80
2023/12/27 02:09:57;;;;;;;8.70;7.10;;;;;;;;;;4961751;28;20127;-79
2023/12/27 02:12:28;;;;;;;9.73;6.38;;;;;;;;;;4948158;28;20042;-80
2023/12/27 02:14:54;;;;;;;9.27;6.72;;;;;;;;;;4946826;28;20046;-77
2023/12/27 02:17:21;;;;;;;9.63;7.03;;;;;;;;;;4936585;28;20042;-79
2023/12/27 02:19:46;;;;;;;7.53;6.78;;;;;;;;;;4967068;28;20031;-81
2023/12/27 02:22:17;;;;;;;7.25;6.60;;;;;;;;;;4970965;28;20109;-81
2023/12/27 02:24:44;;;;;;;8.00;7.05;;;;;;;;;;4959347;28;20121;-79
2023/12/27 02:27:10;;;;;;;7.57;6.28;;;;;;;;;;4967683;28;20043;-80
2023/12/27 02:29:36;;;;;;;10.05;6.93;;;;;;;;;;4952495;28;20071;-80
2023/12/27 02:32:02;;;;;;;9.25;6.72;;;;;;;;;;4969326;28;20046;-79
2023/12/27 02:34:28;;;;;;;7.20;6.50;;;;;;;;;;4969525;28;20042;-80
2023/12/27 02:36:53;;;;;;;7.05;6.55;;;;;;;;;;4965852;28;20037;-81
2023/12/27 02:39:19;;;;;;;8.45;7.18;;;;;;;;;;4975106;28;20038;-81
2023/12/27 02:41:44;;;;;;;8.73;6.82;;;;;;;;;;4948552;28;20046;-79
2023/12/27 02:44:10;;;;;;;10.20;7.18;;;;;;;;;;4954793;28;20681;-81
2023/12/27 02:46:36;;;;;;;7.57;6.75;;;;;;;;;;4964976;28;20042;-80
2023/12/27 02:49:01;;;;;;;7.65;6.95;;;;;;;;;;4953286;28;20114;-80
2023/12/27 02:51:27;;;;;;;7.95;7.28;;;;;;;;;;4964891;28;20090;-80
2023/12/27 02:53:53;;;;;;;11.10;7.93;;;;;;;;;;4959095;28;20038;-80
2023/12/27 02:56:18;;;;;;;8.60;7.68;;;;;;;;;;4976468;28;20049;-80
2023/12/27 02:58:44;;;;;;;8.60;7.80;;;;;;;;;;4969917;28;20058;-79
2023/12/27 03:01:09;;;;;;;8.40;7.43;;;;;;;;;;4955605;28;20045;-80
2023/12/27 03:03:35;;;;;;;9.18;8.23;;;;;;;;;;4955798;28;20037;-79
2023/12/27 03:06:00;;;;;;;8.68;7.88;;;;;;;;;;4955501;28;20039;-80
2023/12/27 03:08:26;;;;;;;9.25;7.93;;;;;;;;;;4947700;28;20050;-81
2023/12/27 03:10:51;;;;;;;8.75;7.90;;;;;;;;;;4974377;28;20054;-81
2023/12/27 03:13:17;;;;;;;9.68;7.63;;;;;;;;;;4972967;28;20050;-80
2023/12/27 03:15:43;;;;;;;10.32;7.35;;;;;;;;;;4939846;28;20057;-79
2023/12/27 03:18:08;;;;;;;8.38;7.53;;;;;;;;;;4947036;28;20059;-80
2023/12/27 03:20:34;;;;;;;9.45;8.30;;;;;;;;;;4961654;28;20113;-80
2023/12/27 03:23:00;;;;;;;7.20;6.50;;;;;;;;;;4971033;28;20062;-79
2023/12/27 03:25:25;;;;;;;6.60;6.20;;;;;;;;;;4959478;28;20125;-80
2023/12/27 03:27:51;;;;;;;8.63;6.93;;;;;;;;;;4948475;28;20139;-80
2023/12/27 03:30:16;;;;;;;6.45;5.93;;;;;;;;;;4946102;28;20137;-81
2023/12/27 03:32:42;;;;;;;7.20;6.50;;;;;;;;;;4948767;28;20042;-80
2023/12/27 03:35:08;;;;;;;7.25;6.57;;;;;;;;;;4966267;28;20038;-80
2023/12/27 03:37:33;;;;;;;8.40;6.88;;;;;;;;;;4965311;28;20614;-80
2023/12/27 03:39:59;;;;;;;16.08;7.90;;;;;;;;;;4927193;28;20416;-80
2023/12/27 03:42:24;;;;;;;7.72;7.07;;;;;;;;;;4952098;28;20069;-81
2023/12/27 03:44:52;;;;;;;10.32;7.40;;;;;;;;;;4936005;28;20046;-81
2023/12/27 03:47:19;;;;;;;8.55;7.65;;;;;;;;;;4959633;28;20050;-80
2023/12/27 03:49:46;;;;;;;11.35;8.45;;;;;;;;;;4951365;28;20145;-79
2023/12/27 03:52:12;;;;;;;8.40;7.03;;;;;;;;;;4944880;28;20101;-80
2023/12/27 03:54:39;;;;;;;12.18;7.40;;;;;;;;;;4963016;28;20568;-81
2023/12/27 03:57:05;;;;;;;9.32;7.53;;;;;;;;;;4974959;28;20026;-80
2023/12/27 03:59:30;;;;;;;8.93;7.90;;;;;;;;;;4945901;28;20042;-79
2023/12/27 04:01:56;;;;;;;9.27;7.63;;;;;;;;;;4952118;28;20654;-80
2023/12/27 04:04:21;;;;;;;8.48;7.68;;;;;;;;;;4951649;28;20038;-81
2023/12/27 04:06:47;;;;;;;8.15;7.45;;;;;;;;;;4985566;28;20777;-81
2023/12/27 04:09:12;;;;;;;10.57;7.63;;;;;;;;;;4970563;28;20050;-80
2023/12/27 04:11:45;;;;;;;12.07;8.10;;;;;;;;;;4958267;28;21338;-80
2023/12/27 04:14:14;;;;;;;8.65;7.85;;;;;;;;;;4980834;28;20093;-79
2023/12/27 04:16:40;;;;;;;;;;;;;;;;;;4961647;28;20030;-79
2023/12/27 04:19:06;;;;;;;8.50;7.05;;;;;;;;;;4975224;28;19917;-81
2023/12/27 04:21:31;;;;;;;9.00;8.10;;;;;;;;;;4968209;28;20369;-81
2023/12/27 04:23:57;;;;;;;9.68;8.50;;;;;;;;;;4962969;28;20109;-78
2023/12/27 04:26:22;;;;;;;8.82;7.93;;;;;;;;;;4961917;28;20039;-81
2023/12/27 04:28:48;;;;;;;8.13;7.38;;;;;;;;;;4947991;28;20629;-80
2023/12/27 04:31:13;;;;;;;8.75;7.75;;;;;;;;;;4964867;28;20085;-79
2023/12/27 04:33:39;;;;;;;11.43;8.25;;;;;;;;;;4957679;28;21582;-79
2023/12/27 04:36:05;;;;;;;8.25;7.55;;;;;;;;;;4964505;28;20935;-80
2023/12/27 04:38:31;;;;;;;8.25;7.25;;;;;;;;;;4947695;28;20111;-80
2023/12/27 04:40:56;;;;;;;8.77;7.85;;;;;;;;;;4950784;28;20125;-81
2023/12/27 04:43:22;;;;;;;8.40;7.68;;;;;;;;;;4946993;28;20133;-81
2023/12/27 04:45:50;;;;;;;9.07;8.15;;;;;;;;;;4972252;28;20037;-80
2023/12/27 04:48:16;;;;;;;8.75;7.72;;;;;;;;;;4968334;28;20683;-80
2023/12/27 04:50:43;;;;;;;10.18;8.02;;;;;;;;;;4969189;28;20101;-80
2023/12/27 04:53:09;;;;;;;11.77;8.55;;;;;;;;;;4968299;28;20045;-80
2023/12/27 04:55:34;;;;;;;9.93;8.27;;;;;;;;;;4960676;28;20034;-81
2023/12/27 04:58:00;;;;;;;8.90;8.10;;;;;;;;;;4956345;28;20132;-79
2023/12/27 05:00:25;;;;;;;11.90;8.77;;;;;;;;;;4969382;28;20038;-78
2023/12/27 05:02:51;;;;;;;12.60;8.65;;;;;;;;;;4964121;28;20045;-81
2023/12/27 05:05:17;;;;;;;10.88;9.82;;;;;;;;;;4948364;28;20050;-81
2023/12/27 05:07:43;;;;;;;12.98;10.30;;;;;;;;;;4963440;28;20141;-80
2023/12/27 05:10:09;;;;;;;10.48;8.85;;;;;;;;;;4964077;28;20029;-81
2023/12/27 05:12:35;;;;;;;14.45;8.35;;;;;;;;;;4956279;28;20031;-82
2023/12/27 05:15:00;;;;;;;9.77;8.32;;;;;;;;;;4961003;28;20035;-81
2023/12/27 05:17:26;;;;;;;10.18;9.18;;;;;;;;;;4963548;28;20104;-80
2023/12/27 05:19:51;;;;;;;9.70;8.70;;;;;;;;;;4969582;28;20038;-80
2023/12/27 05:22:17;;;;;;;13.13;9.00;;;;;;;;;;4965298;28;20054;-80
2023/12/27 05:24:43;;;;;;;11.07;8.63;;;;;;;;;;4960300;28;20038;-80
2023/12/27 05:27:08;;;;;;;9.45;8.52;;;;;;;;;;4964488;28;20054;-81
2023/12/27 05:29:34;;;;;;;10.95;9.00;;;;;;;;;;4964152;28;20723;-81
2023/12/27 05:32:00;;;;;;;9.65;8.68;;;;;;;;;;4964253;28;20097;-80
2023/12/27 05:34:27;;;;;;;12.15;10.13;;;;;;;;;;4963251;28;20043;-80
2023/12/27 05:36:52;;;;;;;10.52;9.30;;;;;;;;;;4947384;28;20054;-82
2023/12/27 05:39:18;;;;;;;12.82;11.00;;;;;;;;;;4965334;28;20039;-81
2023/12/27 05:41:44;;;;;;;13.98;10.98;;;;;;;;;;4947358;28;20481;-80
2023/12/27 05:44:10;;;;;;;12.95;10.30;;;;;;;;;;4964195;28;20127;-81
2023/12/27 05:46:36;;;;;;;14.23;10.60;;;;;;;;;;4964561;28;20122;-80
2023/12/27 05:49:02;;;;;;;14.20;11.68;;;;;;;;;;4963429;28;20039;-82
2023/12/27 05:51:28;;;;;;;14.95;11.35;;;;;;;;;;4960338;28;20043;-80
2023/12/27 05:53:54;;;;;;;16.58;11.50;;;;;;;;;;4965909;28;20035;-81
2023/12/27 05:56:19;;;;;;;21.17;14.05;;;;;;;;;;4972410;28;20149;-82
2023/12/27 05:58:45;;;;;;;86.47;49.50;;;;;;;;;;4972953;28;20042;-81
2023/12/27 06:01:10;;;;;;;111.15;75.80;;;;;;;;;;4952343;28;20038;-80
2023/12/27 06:03:36;;;;;;;28.83;21.95;;;;;;;;;;4963158;28;20050;-81
2023/12/27 06:06:02;;;;;;;23.98;19.48;;;;;;;;;;4957044;28;20049;-81
2023/12/27 06:08:28;;;;;;;79.30;54.17;;;;;;;;;;4967132;28;20051;-81
2023/12/27 06:10:53;;;;;;;10.65;9.57;;;;;;;;;;4958286;28;20058;-81
2023/12/27 06:13:19;;;;;;;20.80;15.52;;;;;;;;;;4968023;28;20141;-80
2023/12/27 06:15:44;;;;;;;21.70;15.38;;;;;;;;;;4949115;28;20038;-81
2023/12/27 06:18:10;;;;;;;12.60;10.63;;;;;;;;;;4964289;28;20039;-80
2023/12/27 06:20:36;;;;;;;12.57;10.43;;;;;;;;;;4957029;28;20030;-81
2023/12/27 06:23:01;;;;;;;11.95;10.85;;;;;;;;;;4955667;28;20043;-82
2023/12/27 06:25:27;;;;;;;14.32;10.20;;;;;;;;;;4960441;28;20505;-81
2023/12/27 06:27:54;;;;;;;12.82;11.63;;;;;;;;;;4947056;28;20038;-80
2023/12/27 06:30:19;;;;;;;16.08;13.38;;;;;;;;;;4951222;28;20042;-82
2023/12/27 06:32:45;;;;;;;15.00;11.18;;;;;;;;;;4961628;28;20053;-80
2023/12/27 06:35:10;;;;;;;23.15;16.52;;;;;;;;;;4968604;28;20119;-81
2023/12/27 06:37:36;;;;;;;12.05;10.52;;;;;;;;;;4965517;28;20046;-81
2023/12/27 06:40:02;;;;;;;21.70;18.23;;;;;;;;;;4961617;28;20053;-80
2023/12/27 06:42:27;;;;;;;40.03;28.83;;;;;;;;;;4961313;28;20061;-80
2023/12/27 06:44:54;;;;;;;11.38;9.95;;;;;;;;;;4964724;28;20121;-80
2023/12/27 06:47:19;;;;;;;11.10;9.65;;;;;;;;;;4962631;28;20069;-81
2023/12/27 06:49:47;;;;;;;13.25;10.25;;;;;;;;;;4966191;28;20050;-81
2023/12/27 06:52:13;;;;;;;10.98;10.07;;;;;;;;;;4959030;28;20060;-80
2023/12/27 06:54:39;;;;;;;11.77;10.63;;;;;;;;;;4962169;28;20039;-80
2023/12/27 06:57:04;;;;;;;11.43;10.18;;;;;;;;;;4962772;28;20039;-81
2023/12/27 06:59:30;;;;;;;13.60;12.30;;;;;;;;;;4959793;28;20041;-80
2023/12/27 07:01:55;;;;;;;13.52;12.13;;;;;;;;;;4963995;28;20064;-79
2023/12/27 07:04:21;;;;;;;12.80;11.50;;;;;;;;;;4944230;28;20031;-80
2023/12/27 07:06:46;;;;;;;12.90;11.57;;;;;;;;;;4959134;28;20035;-81
2023/12/27 07:09:12;;;;;;;17.70;13.43;;;;;;;;;;4967647;28;20436;-80
2023/12/27 07:11:38;;;;;;;21.10;13.13;;;;;;;;;;4961019;28;20050;-80
2023/12/27 07:14:04;;;;;;;16.58;12.77;;;;;;;;;;4964801;28;20134;-80
2023/12/27 07:16:29;;;;;;;16.20;11.82;;;;;;;;;;4965178;28;20157;-82
2023/12/27 07:18:55;;;;;;;12.98;11.15;;;;;;;;;;4955334;28;20038;-82
2023/12/27 07:21:20;;;;;;;12.68;11.38;;;;;;;;;;4928801;28;20065;-79
2023/12/27 07:23:46;;;;;;;14.75;11.77;;;;;;;;;;4962517;28;20039;-80
2023/12/27 07:26:12;;;;;;;12.60;11.25;;;;;;;;;;4941107;28;20104;-80
2023/12/27 07:28:39;;;;;;;13.82;12.52;;;;;;;;;;4961041;28;20045;-79
2023/12/27 07:31:06;;;;;;;14.57;11.23;;;;;;;;;;4959924;28;20516;-78
2023/12/27 07:33:31;;;;;;;11.15;10.13;;;;;;;;;;4944296;28;20417;-80
2023/12/27 07:35:57;;;;;;;13.88;11.13;;;;;;;;;;4963722;28;20037;-79
2023/12/27 07:38:24;;;;;;;14.88;13.48;;;;;;;;;;4962317;28;20031;-79
2023/12/27 07:40:50;;;;;;;11.90;10.82;;;;;;;;;;4963066;28;20098;-79
2023/12/27 07:43:15;;;;;;;14.43;11.90;;;;;;;;;;4945799;28;20077;-79
2023/12/27 07:45:43;;;;;;;9.70;8.95;;;;;;;;;;4960976;28;20058;-79
2023/12/27 07:48:09;;;;;;;12.88;11.50;;;;;;;;;;4957774;28;20031;-79
2023/12/27 07:50:36;;;;;;;11.30;8.10;;;;;;;;;;4946846;28;20042;-78
2023/12/27 07:53:02;;;;;;;10.30;9.30;;;;;;;;;;4957996;28;20543;-79
2023/12/27 07:55:28;;;;;;;8.98;8.27;;;;;;;;;;4963451;28;20031;-80
2023/12/27 07:57:54;;;;;;;7.22;6.75;;;;;;;;;;4973355;28;20041;-79
2023/12/27 08:00:19;;;;;;;9.93;8.90;;;;;;;;;;4968268;28;20062;-80
2023/12/27 08:02:45;;;;;;;9.85;8.95;;;;;;;;;;4968984;28;20066;-78
2023/12/27 08:05:11;;;;;;;10.48;9.40;;;;;;;;;;4967742;28;20058;-80
2023/12/27 08:07:38;;;;;;;10.65;9.75;;;;;;;;;;4959463;28;20042;-80
2023/12/27 08:10:04;;;;;;;10.77;9.68;;;;;;;;;;4968593;28;20046;-79
2023/12/27 08:12:30;;;;;;;10.65;9.40;;;;;;;;;;4962939;28;20108;-79
2023/12/27 08:14:56;;;;;;;9.95;8.75;;;;;;;;;;4965468;28;20038;-82
2023/12/27 08:17:22;;;;;;;10.95;9.38;;;;;;;;;;4945898;28;20508;-79
2023/12/27 08:19:47;;;;;;;13.52;11.82;;;;;;;;;;4943973;28;20043;-80
2023/12/27 08:22:13;;;;;;;13.27;11.77;;;;;;;;;;4954968;28;20049;-81
2023/12/27 08:24:39;;;;;;;11.38;10.38;;;;;;;;;;4962148;28;20113;-79
2023/12/27 08:27:04;;;;;;;12.68;10.95;;;;;;;;;;4958580;28;20049;-79
2023/12/27 08:29:30;;;;;;;15.07;12.30;;;;;;;;;;4963078;28;20129;-80
2023/12/27 08:31:56;;;;;;;14.75;13.00;;;;;;;;;;4950430;28;20121;-79
2023/12/27 08:34:22;;;;;;;14.18;10.02;;;;;;;;;;4962411;28;20473;-79
2023/12/27 08:36:48;;;;;;;11.85;10.02;;;;;;;;;;4958962;28;20031;-79
2023/12/27 08:39:15;;;;;;;9.75;8.43;;;;;;;;;;4962707;28;20065;-79
2023/12/27 08:41:41;;;;;;;9.23;8.48;;;;;;;;;;4961400;28;20039;-78
2023/12/27 08:44:07;;;;;;;10.10;9.20;;;;;;;;;;4972920;28;20038;-79
2023/12/27 08:46:33;;;;;;;14.60;12.05;;;;;;;;;;4958504;28;20050;-79
2023/12/27 08:48:59;;;;;;;10.07;9.15;;;;;;;;;;4968440;28;20042;-77
2023/12/27 08:51:25;;;;;;;8.00;7.40;;;;;;;;;;4984004;28;20083;-79
2023/12/27 08:53:50;;;;;;;9.73;8.73;;;;;;;;;;4967988;28;20073;-78
2023/12/27 08:56:17;;;;;;;8.70;7.43;;;;;;;;;;4969151;28;20043;-79
2023/12/27 08:58:42;;;;;;;8.55;7.55;;;;;;;;;;4964740;28;20034;-78
2023/12/27 09:01:08;;;;;;;8.43;7.72;;;;;;;;;;4983758;28;20046;-81
2023/12/27 09:03:34;;;;;;;9.15;8.25;;;;;;;;;;4955928;28;20222;-81
2023/12/27 09:05:59;;;;;;;8.40;7.60;;;;;;;;;;4971088;28;20308;-79
2023/12/27 09:08:25;;;;;;;7.35;6.72;;;;;;;;;;4971804;28;20062;-79
2023/12/27 09:10:51;;;;;;;7.40;6.80;;;;;;;;;;4985518;28;20046;-80
2023/12/27 09:13:16;;;;;;;8.57;7.80;;;;;;;;;;4979102;28;20045;-81
2023/12/27 09:15:42;;;;;;;8.18;7.53;;;;;;;;;;4969754;28;20039;-81
2023/12/27 09:18:10;;;;;;;8.65;7.78;;;;;;;;;;4950569;28;20749;-79
2023/12/27 09:20:37;;;;;;;8.67;7.80;;;;;;;;;;4963800;28;20035;-80
2023/12/27 09:23:03;;;;;;;8.43;7.43;;;;;;;;;;4966835;28;20282;-81
2023/12/27 09:25:29;;;;;;;10.50;8.48;;;;;;;;;;4970071;28;20101;-83
2023/12/27 09:27:55;;;;;;;8.90;8.00;;;;;;;;;;4943493;28;20066;-81
2023/12/27 09:30:20;;;;;;;7.90;7.30;;;;;;;;;;4954819;28;20139;-81
2023/12/27 09:32:46;;;;;;;10.27;8.43;;;;;;;;;;4965545;28;20063;-83
2023/12/27 09:35:11;;;;;;;9.23;8.10;;;;;;;;;;4950752;28;20089;-80
2023/12/27 09:37:37;;;;;;;8.32;7.65;;;;;;;;;;4958503;28;20157;-80
2023/12/27 09:40:04;;;;;;;9.93;7.03;;;;;;;;;;4962495;28;20027;-79
2023/12/27 09:42:32;;;;;;;8.25;7.55;;;;;;;;;;4966163;28;20038;-82
2023/12/27 09:45:00;;;;;;;8.02;7.25;;;;;;;;;;4963356;28;20066;-81
2023/12/27 09:47:28;;;;;;;8.25;7.47;;;;;;;;;;4969049;28;20059;-80
2023/12/27 09:49:56;;;;;;;8.18;7.38;;;;;;;;;;4950097;28;20038;-81
2023/12/27 09:52:23;;;;;;;12.98;10.10;;;;;;;;;;4965932;28;20039;-81
2023/12/27 09:54:50;;;;;;;8.15;7.35;;;;;;;;;;4936273;28;21433;-83
2023/12/27 09:57:16;;;;;;;8.23;7.38;;;;;;;;;;4964918;28;20034;-82
2023/12/27 09:59:45;;;;;;;8.48;7.68;;;;;;;;;;4965497;28;20046;-82
2023/12/27 10:02:17;;;;;;;8.60;7.70;;;;;;;;;;4960079;28;20581;-81
2023/12/27 10:05:04;;;;;;;8.55;7.85;;;;;;;;;;4959426;28;20038;-81
2023/12/27 10:07:30;;;;;;;8.55;7.75;;;;;;;;;;4957471;28;20425;-81
2023/12/27 10:09:56;;;;;;;10.80;8.88;;;;;;;;;;4961503;28;20043;-82
2023/12/27 10:12:22;;;;;;;9.32;8.40;;;;;;;;;;4962220;28;20027;-81
2023/12/27 10:14:51;;;;;;;9.10;8.30;;;;;;;;;;4964847;28;20045;-82
2023/12/27 10:17:17;;;;;;;9.38;8.55;;;;;;;;;;4953872;28;20031;-82
2023/12/27 10:19:44;;;;;;;9.88;8.90;;;;;;;;;;4963104;28;20039;-83
2023/12/27 10:22:14;;;;;;;23.95;14.40;;;;;;;;;;4960934;28;20041;-82
2023/12/27 10:24:40;;;;;;;8.80;8.00;;;;;;;;;;4960039;28;20517;-82
2023/12/27 10:27:08;;;;;;;8.55;7.85;;;;;;;;;;4959192;28;20042;-82
2023/12/27 10:29:34;;;;;;;9.60;8.70;;;;;;;;;;4961300;28;20860;-82
2023/12/27 10:32:03;;;;;;;8.98;8.07;;;;;;;;;;4962512;28;20042;-82
2023/12/27 10:34:29;;;;;;;9.02;8.23;;;;;;;;;;4960991;28;20062;-81
2023/12/27 10:36:57;;;;;;;9.57;8.20;;;;;;;;;;4956601;28;20039;-81
2023/12/27 10:39:23;;;;;;;12.63;10.90;;;;;;;;;;4964741;28;20035;-80
2023/12/27 10:41:53;;;;;;;10.75;9.57;;;;;;;;;;4962520;28;20736;-80
2023/12/27 10:44:19;;;;;;;59.88;28.77;;;;;;;;;;4966902;28;20046;-82
2023/12/27 10:46:46;;;;;;;8.68;7.82;;;;;;;;;;4957111;28;20047;-82
2023/12/27 10:49:15;;;;;;;10.35;8.57;;;;;;;;;;4965017;28;20567;-81
2023/12/27 10:51:41;;;;;;;;;;;;;;;;;;4964345;28;20038;-82
2023/12/27 10:54:09;;;;;;;9.27;8.38;;;;;;;;;;4965551;28;19921;-81
2023/12/27 10:56:39;;;;;;;11.20;10.20;;;;;;;;;;4958862;28;20042;-81
2023/12/27 10:59:06;;;;;;;8.10;7.50;;;;;;;;;;4961959;28;20050;-81
2023/12/27 11:01:38;;;;;;;9.68;8.88;;;;;;;;;;4947181;28;20081;-81
2023/12/27 11:04:09;;;;;;;9.07;8.38;;;;;;;;;;4948157;28;20054;-82
2023/12/27 11:06:39;;;;;;;9.70;8.80;;;;;;;;;;4945752;28;20039;-82
2023/12/27 11:09:09;;;;;;;10.52;9.57;;;;;;;;;;4957105;28;20091;-80
2023/12/27 11:11:37;;;;;;;10.80;9.90;;;;;;;;;;4965543;28;20108;-81
2023/12/27 11:14:05;;;;;;;8.88;7.88;;;;;;;;;;4965973;28;20070;-81
2023/12/27 11:16:35;;;;;;;8.60;7.80;;;;;;;;;;4968533;28;20045;-82
2023/12/27 11:19:06;;;;;;;7.90;7.20;;;;;;;;;;4965557;28;20124;-82
2023/12/27 11:21:33;;;;;;;8.48;7.65;;;;;;;;;;4969213;28;20026;-82
2023/12/27 11:23:59;;;;;;;13.50;8.38;;;;;;;;;;4966632;28;20080;-82
2023/12/27 11:26:26;;;;;;;9.02;8.23;;;;;;;;;;4959514;28;20042;-82
2023/12/27 11:28:52;;;;;;;9.25;8.35;;;;;;;;;;4969873;28;20153;-82
2023/12/27 11:31:19;;;;;;;8.85;8.15;;;;;;;;;;4966901;28;20042;-82
2023/12/27 11:33:45;;;;;;;8.77;7.88;;;;;;;;;;4961353;28;20050;-82
2023/12/27 11:36:11;;;;;;;7.88;7.28;;;;;;;;;;4947694;28;20042;-82
2023/12/27 11:38:38;;;;;;;11.27;7.78;;;;;;;;;;4948715;28;20035;-82
2023/12/27 11:41:04;;;;;;;8.50;7.80;;;;;;;;;;4961573;28;20047;-80
2023/12/27 11:44:05;;;;;;;8.98;8.18;;;;;;;;;;4967806;28;20682;-81
2023/12/27 11:46:31;;;;;;;9.63;8.63;;;;;;;;;;4959203;28;20089;-81
2023/12/27 11:48:59;;;;;;;10.43;8.30;;;;;;;;;;4953185;28;20047;-81
2023/12/27 11:51:34;;;;;;;8.82;7.93;;;;;;;;;;4953765;28;20041;-80
2023/12/27 11:54:02;;;;;;;9.93;9.10;;;;;;;;;;4957821;28;20074;-80
2023/12/27 11:56:32;;;;;;;8.27;7.47;;;;;;;;;;4962684;28;20611;-81
2023/12/27 11:59:06;;;;;;;9.05;8.35;;;;;;;;;;4956459;28;20089;-79
2023/12/27 12:01:36;;;;;;;8.77;7.97;;;;;;;;;;4960463;28;20037;-82
2023/12/27 12:04:06;;;;;;;8.75;7.93;;;;;;;;;;4956213;28;20043;-82
2023/12/27 12:06:35;;;;;;;;;;;;;;;;;;4953476;28;20039;-81
2023/12/27 12:09:01;;;;;;;8.80;8.10;;;;;;;;;;4939649;28;19941;-82
2023/12/27 12:11:27;;;;;;;10.85;8.00;;;;;;;;;;4955950;28;20047;-82
2023/12/27 12:13:55;;;;;;;8.10;7.32;;;;;;;;;;4957457;28;20086;-81
2023/12/27 12:16:20;;;;;;;8.80;7.90;;;;;;;;;;4952593;28;20204;-82
2023/12/27 12:18:47;;;;;;;8.70;7.80;;;;;;;;;;4954840;28;20783;-82
2023/12/27 12:21:13;;;;;;;8.63;7.80;;;;;;;;;;4925430;28;20035;-82
2023/12/27 12:23:38;;;;;;;8.05;7.30;;;;;;;;;;4944829;28;20067;-80
2023/12/27 12:26:05;;;;;;;9.43;8.18;;;;;;;;;;4950915;28;20129;-82
2023/12/27 12:28:31;;;;;;;8.40;7.60;;;;;;;;;;4960600;28;20038;-82
2023/12/27 12:30:58;;;;;;;8.85;8.00;;;;;;;;;;4950015;28;20763;-81
2023/12/27 12:33:24;;;;;;;10.05;8.48;;;;;;;;;;4933921;28;20046;-83
2023/12/27 12:35:50;;;;;;;8.93;8.10;;;;;;;;;;4940278;28;20054;-82
2023/12/27 12:38:18;;;;;;;10.50;8.32;;;;;;;;;;4958464;28;20136;-82
2023/12/27 12:40:44;;;;;;;8.95;8.05;;;;;;;;;;4942094;28;20065;-83
2023/12/27 12:43:12;;;;;;;9.20;8.38;;;;;;;;;;4959969;28;20038;-83
2023/12/27 12:45:39;;;;;;;8.32;7.60;;;;;;;;;;4943947;28;21104;-81
2023/12/27 12:48:05;;;;;;;9.65;8.50;;;;;;;;;;4961948;28;20130;-82
2023/12/27 12:50:30;;;;;;;8.50;7.80;;;;;;;;;;4955779;28;20796;-82
2023/12/27 12:52:56;;;;;;;8.50;7.80;;;;;;;;;;4958616;28;20119;-79
2023/12/27 12:55:28;;;;;;;8.30;7.70;;;;;;;;;;4963596;28;20492;-81
2023/12/27 12:57:57;;;;;;;8.85;8.05;;;;;;;;;;4964092;28;20062;-81
2023/12/27 13:00:23;;;;;;;9.02;8.18;;;;;;;;;;4954419;28;20050;-81
2023/12/27 13:02:52;;;;;;;8.70;7.90;;;;;;;;;;4957342;28;20049;-81
2023/12/27 13:05:17;;;;;;;8.88;8.13;;;;;;;;;;4957393;28;20597;-81
2023/12/27 13:07:43;;;;;;;8.82;8.00;;;;;;;;;;4953475;28;20034;-82
2023/12/27 13:10:12;;;;;;;9.75;8.95;;;;;;;;;;4959516;28;20734;-82
2023/12/27 13:12:38;;;;;;;;;;;;;;;;;;4954735;28;20135;-81
2023/12/27 13:15:04;;;;;;;8.77;7.90;;;;;;;;;;4973545;28;19925;-80
2023/12/27 13:17:30;;;;;;;9.73;8.82;;;;;;;;;;4975149;28;20046;-81
2023/12/27 13:19:55;;;;;;;10.45;8.68;;;;;;;;;;4971808;28;20030;-80
2023/12/27 13:22:21;;;;;;;8.90;8.10;;;;;;;;;;4945492;28;20034;-80
2023/12/27 13:24:46;;;;;;;10.00;9.02;;;;;;;;;;4948753;28;20065;-80
2023/12/27 13:27:12;;;;;;;8.77;8.05;;;;;;;;;;4944010;28;20042;-81
2023/12/27 13:29:38;;;;;;;9.48;8.55;;;;;;;;;;4961895;28;20027;-81
2023/12/27 13:32:03;;;;;;;8.52;7.82;;;;;;;;;;4962824;28;20062;-83
2023/12/27 13:34:29;;;;;;;8.90;8.20;;;;;;;;;;4943533;28;20101;-83
2023/12/27 13:36:55;;;;;;;9.93;8.82;;;;;;;;;;4945278;28;20126;-82
2023/12/27 13:39:20;;;;;;;9.82;8.82;;;;;;;;;;4964706;28;20493;-82
2023/12/27 13:41:46;;;;;;;9.95;9.00;;;;;;;;;;4959151;28;20038;-82
2023/12/27 13:44:15;;;;;;;10.93;9.82;;;;;;;;;;4947711;28;20077;-81
2023/12/27 13:46:40;;;;;;;14.38;9.40;;;;;;;;;;4960360;28;20592;-81
2023/12/27 13:49:09;;;;;;;11.00;9.90;;;;;;;;;;4963668;28;20031;-82
2023/12/27 13:51:36;;;;;;;9.33;8.50;;;;;;;;;;4959947;28;20063;-82
2023/12/27 13:54:03;;;;;;;11.30;8.65;;;;;;;;;;4963352;28;20300;-80
2023/12/27 13:56:29;;;;;;;9.57;8.68;;;;;;;;;;4956989;28;20084;-80
2023/12/27 13:58:54;;;;;;;9.00;8.13;;;;;;;;;;4958329;28;20062;-82
2023/12/27 14:01:20;;;;;;;8.40;7.60;;;;;;;;;;4958458;28;20125;-81
2023/12/27 14:03:46;;;;;;;9.10;7.78;;;;;;;;;;4961027;28;20110;-83
2023/12/27 14:06:11;;;;;;;14.43;9.05;;;;;;;;;;4960004;28;20030;-81
2023/12/27 14:08:37;;;;;;;12.88;9.90;;;;;;;;;;4964321;28;20066;-82
2023/12/27 14:11:03;;;;;;;9.98;9.02;;;;;;;;;;4944795;28;20046;-80
2023/12/27 14:13:28;;;;;;;9.93;8.95;;;;;;;;;;4946912;28;20959;-82
2023/12/27 14:15:54;;;;;;;12.02;10.02;;;;;;;;;;4959672;28;20114;-81
2023/12/27 14:18:20;;;;;;;12.82;10.07;;;;;;;;;;4950113;28;20504;-80
2023/12/27 14:20:46;;;;;;;9.75;8.75;;;;;;;;;;4964700;28;20035;-80
2023/12/27 14:23:11;;;;;;;10.38;9.40;;;;;;;;;;4950030;28;20030;-80
2023/12/27 14:27:36;;;;;;;9.60;8.82;;;;;;;;;;5107932;27;20776;-68
2023/12/27 14:30:02;;;;;;;10.45;9.00;;;;;;;;;;5079153;27;20047;-68
2023/12/27 14:32:29;;;;;;;11.32;9.98;;;;;;;;;;5058164;28;20649;-67